AAL weather

Aalborg Airport
Aalborg, North Jutland, Denmark

Public forecast

Using degrees Celsius for public forecast. Weather courtesy of forecast.io.

Current aviation weather report (METAR) for Aalborg Airport

Retrieved 2019/11/12 09:20 UTC (21 minutes ago):

EKYT 120920Z AUTO 17012KT 9999 FEW110/// BKN130/// 06/04 Q0996

Aviation forecast (TAF) for Aalborg Airport

Retrieved 2019/11/12 09:14 UTC (27 minutes ago):

TAF EKYT 120807Z 1209/1309 17012KT 9999 SCT012 BKN025 TEMPO 1209/1217 17012G25KT 4000 SHRA BKN010 SCT030CB PROB40 1300/1309 5000 BR BKN012